createdAt,value
2019-02-14T00:01:16.199Z,4.26
2019-02-14T00:03:46.642Z,4.37
2019-02-14T00:06:17.441Z,4.37
2019-02-14T00:08:47.888Z,4.37
2019-02-14T00:11:18.331Z,4.28
2019-02-14T00:13:48.903Z,4.30
2019-02-14T00:16:19.376Z,4.32
2019-02-14T00:18:50.778Z,4.22
2019-02-14T00:21:22.041Z,4.20
2019-02-14T00:23:52.486Z,4.18
2019-02-14T00:26:22.935Z,4.20
2019-02-14T00:28:54.714Z,4.20
2019-02-14T00:31:25.527Z,4.15
2019-02-14T00:33:56.363Z,4.16
2019-02-14T00:36:26.850Z,4.09
2019-02-14T00:38:57.377Z,4.00
2019-02-14T00:41:28.223Z,4.03
2019-02-14T00:43:58.724Z,4.06
2019-02-14T00:46:29.170Z,4.05
2019-02-14T00:48:59.965Z,4.02
2019-02-14T00:51:30.775Z,4.03
2019-02-14T00:54:01.222Z,3.98
2019-02-14T00:56:32.446Z,4.01
2019-02-14T00:59:03.271Z,3.99
2019-02-14T01:01:33.719Z,3.96
2019-02-14T01:04:04.157Z,3.93
2019-02-14T01:06:34.655Z,3.90
2019-02-14T01:09:06.595Z,3.81
2019-02-14T01:11:37.035Z,3.80
2019-02-14T01:14:07.538Z,3.88
2019-02-14T01:16:38.010Z,3.80
2019-02-14T01:19:08.462Z,3.85
2019-02-14T01:21:38.969Z,3.80
2019-02-14T01:24:09.738Z,3.86
2019-02-14T01:26:40.562Z,3.87
2019-02-14T01:29:11.070Z,3.87
2019-02-14T01:31:41.513Z,3.88
2019-02-14T01:34:11.967Z,3.89
2019-02-14T01:36:42.484Z,3.98
2019-02-14T01:39:13.239Z,3.89
2019-02-14T01:41:44.005Z,3.87
2019-02-14T01:44:14.507Z,3.82
2019-02-14T01:46:45.650Z,3.82
2019-02-14T01:49:16.123Z,3.83
2019-02-14T01:51:46.615Z,3.82
2019-02-14T01:54:17.064Z,3.80
2019-02-14T01:56:48.190Z,3.79
2019-02-14T01:59:18.691Z,3.80
2019-02-14T02:01:49.489Z,3.80
2019-02-14T02:04:20.294Z,3.78
2019-02-14T02:06:51.134Z,3.80
2019-02-14T02:09:21.574Z,3.75
2019-02-14T02:11:52.015Z,3.68
2019-02-14T02:14:22.521Z,3.68
2019-02-14T02:16:53.560Z,3.69
2019-02-14T02:19:24.024Z,3.68
2019-02-14T02:21:54.496Z,3.69
2019-02-14T02:24:24.957Z,3.63
2019-02-14T02:26:55.565Z,3.59
2019-02-14T02:29:26.071Z,3.57
2019-02-14T02:31:56.899Z,3.59
2019-02-14T02:34:27.351Z,3.53
2019-02-14T02:36:57.840Z,3.50
2019-02-14T02:39:28.307Z,3.52
2019-02-14T02:41:59.133Z,3.49
2019-02-14T02:44:29.643Z,3.54
2019-02-14T02:47:00.089Z,3.50
2019-02-14T02:49:30.527Z,3.49
2019-02-14T02:52:01.753Z,3.55
2019-02-14T02:54:32.186Z,3.59
2019-02-14T02:57:03.150Z,3.58
2019-02-14T02:59:33.669Z,3.52
2019-02-14T03:02:04.115Z,3.51
2019-02-14T03:04:34.562Z,3.56
2019-02-14T03:07:05.494Z,3.58
2019-02-14T03:09:36.225Z,3.50
2019-02-14T03:12:06.671Z,3.52
2019-02-14T03:14:37.471Z,3.53
2019-02-14T03:17:08.794Z,3.56
2019-02-14T03:19:39.556Z,3.52
2019-02-14T03:22:10.037Z,3.52
2019-02-14T03:24:40.487Z,3.51
2019-02-14T03:27:10.941Z,3.50
2019-02-14T03:29:41.450Z,3.50
2019-02-14T03:32:12.310Z,3.54
2019-02-14T03:34:43.134Z,3.50
2019-02-14T03:37:13.625Z,3.53
2019-02-14T03:39:44.402Z,3.48
2019-02-14T03:42:14.847Z,3.54
2019-02-14T03:44:45.324Z,3.51
2019-02-14T03:47:15.767Z,3.51
2019-02-14T03:49:46.635Z,3.49
2019-02-14T03:52:17.080Z,3.52
2019-02-14T03:54:47.518Z,3.54
2019-02-14T03:57:18.874Z,3.45
2019-02-14T03:59:49.314Z,3.44
2019-02-14T04:02:20.574Z,3.45
2019-02-14T04:04:51.024Z,3.45
2019-02-14T04:07:21.474Z,3.51
2019-02-14T04:09:52.914Z,3.48
2019-02-14T04:12:23.711Z,3.45
2019-02-14T04:14:54.474Z,3.49
2019-02-14T04:17:24.921Z,3.46
2019-02-14T04:19:55.395Z,3.52
2019-02-14T04:22:25.870Z,3.49
2019-02-14T04:24:56.947Z,3.49
2019-02-14T04:27:27.673Z,3.55
2019-02-14T04:29:58.129Z,3.58
2019-02-14T04:32:28.953Z,3.58
2019-02-14T04:34:59.443Z,3.56
2019-02-14T04:37:29.889Z,3.48
2019-02-14T04:40:00.386Z,3.51
2019-02-14T04:42:31.426Z,3.49
2019-02-14T04:45:02.049Z,3.50
2019-02-14T04:47:32.683Z,3.55
2019-02-14T04:50:03.494Z,3.49
2019-02-14T04:52:33.978Z,3.44
2019-02-14T04:55:05.069Z,3.36
2019-02-14T04:57:35.958Z,3.36
2019-02-14T05:00:07.290Z,3.30
2019-02-14T05:02:38.208Z,3.31
2019-02-14T05:05:08.878Z,3.27
2019-02-14T05:07:39.328Z,3.21
2019-02-14T05:10:09.884Z,3.22
2019-02-14T05:12:40.357Z,3.23
2019-02-14T05:15:10.941Z,3.16
2019-02-14T05:17:41.944Z,3.12
2019-02-14T05:20:12.400Z,3.15
2019-02-14T05:22:42.851Z,3.13
2019-02-14T05:25:13.324Z,3.13
2019-02-14T05:27:43.787Z,3.17
2019-02-14T05:30:14.470Z,3.12
2019-02-14T05:32:45.216Z,3.18
2019-02-14T05:35:16.043Z,3.19
2019-02-14T05:37:47.100Z,3.25
2019-02-14T05:40:17.838Z,3.26
2019-02-14T05:42:48.614Z,3.22
2019-02-14T05:45:19.435Z,3.21
2019-02-14T05:47:50.007Z,3.11
2019-02-14T05:50:20.503Z,3.12
2019-02-14T05:52:50.956Z,3.11
2019-02-14T05:55:21.810Z,3.13
2019-02-14T05:57:52.274Z,3.20
2019-02-14T06:00:23.036Z,3.19
2019-02-14T06:02:53.510Z,3.09
2019-02-14T06:05:23.965Z,3.09
2019-02-14T06:07:55.086Z,3.09
2019-02-14T06:10:25.889Z,3.10
2019-02-14T06:12:56.365Z,3.11
2019-02-14T06:15:26.839Z,3.18
2019-02-14T06:17:57.302Z,3.13
2019-02-14T06:20:28.797Z,3.14
2019-02-14T06:22:59.246Z,3.09
2019-02-14T06:25:29.706Z,3.14
2019-02-14T06:28:00.170Z,3.06
2019-02-14T06:30:30.615Z,3.11
2019-02-14T06:33:01.402Z,3.05
2019-02-14T06:35:31.851Z,3.08
2019-02-14T06:38:03.031Z,3.08
2019-02-14T06:40:33.521Z,3.15
2019-02-14T06:43:03.962Z,3.15
2019-02-14T06:45:34.782Z,3.19
2019-02-14T06:48:05.227Z,3.15
2019-02-14T06:50:35.673Z,3.23
2019-02-14T06:53:06.157Z,3.31
2019-02-14T06:55:36.607Z,3.29
2019-02-14T06:58:08.064Z,3.24
2019-02-14T07:00:38.844Z,3.24
2019-02-14T07:03:09.675Z,3.21
2019-02-14T07:05:40.415Z,3.19
2019-02-14T07:08:11.297Z,3.16
2019-02-14T07:10:41.791Z,3.20
2019-02-14T07:13:12.246Z,3.28
2019-02-14T07:15:42.693Z,3.23
2019-02-14T07:18:13.489Z,3.30
2019-02-14T07:20:43.943Z,3.27
2019-02-14T07:23:15.087Z,3.28
2019-02-14T07:25:45.530Z,3.32
2019-02-14T07:28:16.158Z,3.42
2019-02-14T07:30:46.646Z,3.50
2019-02-14T07:33:17.089Z,3.53
2019-02-14T07:35:48.050Z,3.51
2019-02-14T07:38:18.497Z,3.53
2019-02-14T07:40:48.943Z,3.54
2019-02-14T07:43:19.414Z,3.59
2019-02-14T07:45:49.869Z,3.57
2019-02-14T07:48:21.732Z,3.59
2019-02-14T07:50:52.181Z,3.66
2019-02-14T07:53:22.631Z,3.64
2019-02-14T07:55:53.106Z,3.73
2019-02-14T07:58:24.697Z,3.74
2019-02-14T08:00:55.655Z,3.73
2019-02-14T08:03:26.371Z,3.80
2019-02-14T08:05:56.834Z,3.86
2019-02-14T08:08:27.311Z,3.94
2019-02-14T08:10:57.753Z,4.04
2019-02-14T08:13:28.257Z,4.07
2019-02-14T08:15:58.698Z,4.16
2019-02-14T08:18:29.142Z,4.29
2019-02-14T08:20:59.634Z,4.27
2019-02-14T08:23:30.113Z,4.31
2019-02-14T08:26:00.611Z,4.29
2019-02-14T08:28:31.059Z,4.27
2019-02-14T08:31:01.530Z,4.23
2019-02-14T08:33:32.045Z,4.29
2019-02-14T08:36:02.876Z,4.28
2019-02-14T08:38:33.383Z,4.41
2019-02-14T08:41:04.215Z,4.48
2019-02-14T08:43:34.654Z,4.48
2019-02-14T08:46:05.137Z,4.54
2019-02-14T08:48:35.583Z,4.52
2019-02-14T08:51:06.087Z,4.53
2019-02-14T08:53:36.618Z,4.64
2019-02-14T08:56:07.065Z,4.85
2019-02-14T08:58:37.850Z,5.14
2019-02-14T09:01:08.681Z,5.28
2019-02-14T09:03:39.522Z,5.37
2019-02-14T09:06:10.011Z,5.39
2019-02-14T09:08:40.455Z,5.43
2019-02-14T09:11:10.914Z,5.56
2019-02-14T09:13:41.404Z,5.63
2019-02-14T09:16:11.847Z,5.68
2019-02-14T09:18:42.306Z,5.74
2019-02-14T09:21:12.802Z,5.82
2019-02-14T09:23:43.272Z,5.99
2019-02-14T09:26:13.723Z,6.20
2019-02-14T09:28:44.570Z,6.29
2019-02-14T09:31:15.307Z,6.30
2019-02-14T09:33:45.737Z,6.36
2019-02-14T09:36:16.490Z,6.37
2019-02-14T09:38:46.949Z,6.65
2019-02-14T09:41:17.374Z,6.63
2019-02-14T09:43:48.238Z,6.73
2019-02-14T09:46:18.679Z,6.76
2019-02-14T09:48:49.115Z,6.97
2019-02-14T09:51:19.620Z,7.26
2019-02-14T09:53:50.046Z,7.43
2019-02-14T09:56:20.496Z,7.59
2019-02-14T09:58:51.990Z,7.85
2019-02-14T10:01:22.892Z,8.08
2019-02-14T10:03:53.666Z,8.32
2019-02-14T10:06:24.141Z,8.45
2019-02-14T10:08:54.587Z,8.42
2019-02-14T10:11:25.056Z,8.51
2019-02-14T10:13:55.881Z,8.43
2019-02-14T10:16:26.727Z,8.36
2019-02-14T10:18:57.272Z,8.55
2019-02-14T10:21:28.618Z,8.71
2019-02-14T10:23:59.084Z,8.62
2019-02-14T10:26:29.540Z,8.74
2019-02-14T10:29:00.029Z,8.83
2019-02-14T10:31:30.487Z,9.06
2019-02-14T10:34:00.904Z,9.19
2019-02-14T10:36:31.391Z,9.25
2019-02-14T10:39:01.838Z,9.26
2019-02-14T10:41:32.272Z,9.26
2019-02-14T10:44:03.139Z,8.99
2019-02-14T10:46:35.677Z,8.95
2019-02-14T10:49:05.718Z,9.22
2019-02-14T10:51:36.279Z,9.13
2019-02-14T10:54:06.722Z,9.28
2019-02-14T10:56:37.567Z,9.36
2019-02-14T10:59:08.037Z,9.47
2019-02-14T11:01:38.484Z,9.55
2019-02-14T11:04:08.934Z,9.28
2019-02-14T11:06:39.499Z,8.83
2019-02-14T11:09:10.040Z,8.76
2019-02-14T11:11:40.480Z,8.57
2019-02-14T11:14:10.960Z,8.65
2019-02-14T11:16:41.394Z,8.71
2019-02-14T11:19:11.836Z,8.96
2019-02-14T11:21:42.715Z,9.24
2019-02-14T11:24:13.186Z,9.36
2019-02-14T11:26:43.626Z,9.30
2019-02-14T11:29:14.109Z,9.29
2019-02-14T11:31:44.941Z,9.38
2019-02-14T11:34:15.382Z,9.56
2019-02-14T11:36:46.209Z,9.46
2019-02-14T11:39:16.645Z,9.75
2019-02-14T11:41:47.079Z,9.83
2019-02-14T11:44:17.574Z,10.14
2019-02-14T11:46:51.467Z,10.05
2019-02-14T11:49:20.571Z,9.91
2019-02-14T11:51:51.489Z,10.11
2019-02-14T11:54:21.906Z,10.19
2019-02-14T11:56:52.732Z,10.30
2019-02-14T11:59:23.666Z,10.56
2019-02-14T12:01:55.559Z,10.67
2019-02-14T12:04:26.213Z,10.74
2019-02-14T12:06:56.706Z,10.94
2019-02-14T12:09:27.149Z,10.99
2019-02-14T12:11:57.867Z,11.22
2019-02-14T12:14:28.349Z,11.06
2019-02-14T12:16:58.794Z,11.07
2019-02-14T12:19:29.232Z,11.11
2019-02-14T12:22:00.043Z,11.30
2019-02-14T12:24:30.517Z,11.40
2019-02-14T12:27:01.355Z,11.47
2019-02-14T12:29:31.843Z,11.68
2019-02-14T12:32:02.287Z,11.91
2019-02-14T12:34:33.389Z,12.02
2019-02-14T12:37:03.869Z,12.22
2019-02-14T12:39:34.321Z,12.31
2019-02-14T12:42:04.757Z,12.20
2019-02-14T12:44:35.243Z,12.13
2019-02-14T12:47:05.684Z,12.17
2019-02-14T12:49:36.128Z,12.12
2019-02-14T12:52:06.613Z,12.33
2019-02-14T12:54:37.049Z,12.43
2019-02-14T12:57:07.495Z,12.37
2019-02-14T12:59:38.382Z,12.29
2019-02-14T13:02:09.185Z,12.38
2019-02-14T13:04:39.619Z,12.36
2019-02-14T13:07:10.286Z,12.55
2019-02-14T13:09:41.075Z,12.63
2019-02-14T13:12:11.852Z,12.58
2019-02-14T13:14:42.338Z,12.68
2019-02-14T13:17:13.394Z,12.86
2019-02-14T13:19:43.835Z,12.90
2019-02-14T13:22:14.710Z,13.03
2019-02-14T13:24:45.206Z,12.99
2019-02-14T13:27:15.980Z,13.07
2019-02-14T13:29:46.461Z,13.17
2019-02-14T13:32:16.897Z,13.28
2019-02-14T13:34:47.337Z,13.46
2019-02-14T13:37:17.824Z,13.44
2019-02-14T13:39:48.633Z,13.75
2019-02-14T13:42:19.596Z,13.91
2019-02-14T13:44:50.159Z,13.89
2019-02-14T13:47:20.599Z,14.06
2019-02-14T13:49:51.445Z,14.10
2019-02-14T13:52:21.931Z,14.20
2019-02-14T13:54:52.740Z,14.21
2019-02-14T13:57:23.186Z,14.26
2019-02-14T13:59:54.022Z,14.35
2019-02-14T14:02:24.467Z,14.32
2019-02-14T14:04:54.930Z,14.22
2019-02-14T14:07:25.401Z,14.25
2019-02-14T14:09:55.847Z,14.27
2019-02-14T14:12:26.285Z,14.37
2019-02-14T14:14:56.929Z,14.43
2019-02-14T14:17:27.375Z,14.34
2019-02-14T14:19:57.819Z,14.39
2019-02-14T14:22:28.301Z,14.45
2019-02-14T14:24:59.127Z,14.49
2019-02-14T14:27:29.586Z,14.51
2019-02-14T14:30:00.079Z,14.62
2019-02-14T14:32:30.929Z,14.61
2019-02-14T14:35:02.068Z,14.80
2019-02-14T14:37:32.655Z,14.89
2019-02-14T14:40:03.605Z,15.01
2019-02-14T14:43:02.558Z,15.20
2019-02-14T14:45:53.227Z,15.09
2019-02-14T14:48:25.034Z,15.27
2019-02-14T14:50:55.470Z,15.48
2019-02-14T14:53:25.921Z,15.60
2019-02-14T14:55:56.425Z,15.74
2019-02-14T14:58:27.037Z,15.87
2019-02-14T15:00:57.750Z,16.05
2019-02-14T15:03:28.287Z,16.04
2019-02-14T15:05:58.694Z,16.18
2019-02-14T15:08:29.520Z,16.31
2019-02-14T15:11:00.005Z,16.40
2019-02-14T15:13:30.455Z,16.59
2019-02-14T15:16:00.913Z,16.76
2019-02-14T15:18:31.393Z,16.88
2019-02-14T15:21:01.847Z,17.00
2019-02-14T15:23:33.063Z,16.96
2019-02-14T15:26:04.963Z,17.21
2019-02-14T15:28:37.475Z,17.45
2019-02-14T15:31:08.293Z,17.29
2019-02-14T15:33:38.796Z,17.21
2019-02-14T15:36:09.899Z,17.12
2019-02-14T15:38:40.442Z,16.56
2019-02-14T15:41:10.940Z,16.06
2019-02-14T15:43:41.393Z,15.73
2019-02-14T15:46:11.853Z,15.34
2019-02-14T15:48:42.677Z,14.74
2019-02-14T15:51:13.121Z,14.44
2019-02-14T15:53:46.182Z,14.16
2019-02-14T15:56:16.386Z,13.94
2019-02-14T15:58:47.199Z,13.76
2019-02-14T16:01:19.010Z,13.53
2019-02-14T16:03:49.636Z,13.37
2019-02-14T16:06:20.080Z,13.17
2019-02-14T16:08:50.761Z,12.96
2019-02-14T16:11:22.370Z,12.76
2019-02-14T16:13:54.540Z,12.56
2019-02-14T16:16:25.337Z,12.31
2019-02-14T16:18:55.831Z,12.11
2019-02-14T16:21:27.791Z,11.99
2019-02-14T16:23:58.915Z,11.81
2019-02-14T16:26:29.445Z,11.66
2019-02-14T16:29:02.044Z,11.58
2019-02-14T16:31:33.325Z,11.37
2019-02-14T16:34:03.822Z,11.30
2019-02-14T16:36:34.271Z,11.13
2019-02-14T16:39:05.688Z,11.13
2019-02-14T16:41:36.530Z,11.05
2019-02-14T16:44:06.973Z,10.83
2019-02-14T16:46:37.425Z,10.61
2019-02-14T16:49:07.910Z,10.46
2019-02-14T16:51:38.347Z,10.39
2019-02-14T16:54:09.192Z,10.33
2019-02-14T16:56:39.684Z,10.25
2019-02-14T16:59:10.131Z,10.15
2019-02-14T17:01:40.990Z,10.06
2019-02-14T17:04:11.934Z,10.05
2019-02-14T17:06:42.409Z,9.94
2019-02-14T17:09:12.864Z,9.86
2019-02-14T17:11:43.353Z,9.76
2019-02-14T17:14:13.830Z,9.65
2019-02-14T17:16:44.289Z,9.58
2019-02-14T17:19:15.509Z,9.48
2019-02-14T17:21:45.984Z,9.41
2019-02-14T17:24:16.419Z,9.33
2019-02-14T17:26:47.296Z,9.24
2019-02-14T17:29:17.766Z,9.20
2019-02-14T17:31:48.220Z,9.19
2019-02-14T17:34:18.880Z,9.07
2019-02-14T17:36:49.346Z,9.00
2019-02-14T17:39:20.205Z,8.92
2019-02-14T17:41:52.125Z,8.83
2019-02-14T17:44:22.585Z,8.77
2019-02-14T17:46:53.396Z,8.68
2019-02-14T17:49:23.886Z,8.80
2019-02-14T17:51:54.340Z,8.75
2019-02-14T17:54:25.151Z,8.71
2019-02-14T17:56:55.649Z,8.63
2019-02-14T17:59:26.084Z,8.53
2019-02-14T18:01:57.000Z,8.54
2019-02-14T18:04:27.492Z,8.49
2019-02-14T18:06:58.933Z,8.42
2019-02-14T18:09:29.709Z,8.40
2019-02-14T18:12:00.601Z,8.35
2019-02-14T18:14:31.045Z,8.27
2019-02-14T18:17:01.563Z,8.25
2019-02-14T18:19:32.061Z,8.23
2019-02-14T18:22:02.531Z,8.23
2019-02-14T18:24:33.851Z,8.19
2019-02-14T18:27:04.364Z,8.11
2019-02-14T18:29:35.217Z,8.11
2019-02-14T18:32:06.004Z,8.06
2019-02-14T18:34:36.971Z,7.97
2019-02-14T18:37:07.417Z,7.84
2019-02-14T18:39:37.848Z,7.74
2019-02-14T18:42:09.001Z,7.71
2019-02-14T18:44:41.148Z,7.65
2019-02-14T18:47:12.022Z,7.58
2019-02-14T18:49:42.543Z,7.53
2019-02-14T18:52:14.293Z,7.46
2019-02-14T18:54:44.728Z,7.39
2019-02-14T18:57:15.218Z,7.29
2019-02-14T18:59:46.128Z,7.22
2019-02-14T19:02:16.674Z,7.13
2019-02-14T19:04:47.719Z,7.07
2019-02-14T19:07:18.169Z,7.09
2019-02-14T19:09:48.940Z,7.07
2019-02-14T19:12:21.527Z,7.05
2019-02-14T19:14:53.701Z,7.04
2019-02-14T19:17:24.170Z,6.96
2019-02-14T19:19:55.007Z,7.07
2019-02-14T19:22:25.455Z,6.96
2019-02-14T19:24:55.927Z,6.98
2019-02-14T19:27:27.843Z,6.95
2019-02-14T19:29:58.303Z,6.88
2019-02-14T19:32:28.744Z,6.93
2019-02-14T19:34:59.237Z,6.76
2019-02-14T19:37:30.069Z,6.70
2019-02-14T19:40:00.501Z,6.59
2019-02-14T19:42:31.750Z,6.62
2019-02-14T19:45:03.203Z,6.63
2019-02-14T19:47:41.340Z,6.72
2019-02-14T19:50:11.891Z,6.64
2019-02-14T19:52:42.728Z,6.59
2019-02-14T19:55:13.229Z,6.54
2019-02-14T19:57:43.689Z,6.49
2019-02-14T20:00:15.752Z,6.45
2019-02-14T20:02:46.255Z,6.48
2019-02-14T20:05:16.922Z,6.53
2019-02-14T20:07:47.398Z,6.59
2019-02-14T20:10:18.016Z,6.56
2019-02-14T20:12:48.496Z,6.57
2019-02-14T20:15:19.801Z,6.57
2019-02-14T20:17:50.613Z,6.61
2019-02-14T20:20:21.400Z,6.64
2019-02-14T20:22:51.829Z,6.65
2019-02-14T20:25:23.368Z,6.61
2019-02-14T20:27:57.272Z,6.59
2019-02-14T20:30:28.482Z,6.54
2019-02-14T20:33:04.727Z,6.64
2019-02-14T20:35:31.101Z,6.51
2019-02-14T20:38:02.159Z,6.54
2019-02-14T20:40:33.267Z,6.49
2019-02-14T20:43:05.902Z,6.43
2019-02-14T20:45:54.081Z,6.42
2019-02-14T20:48:24.589Z,6.39
2019-02-14T20:50:55.028Z,6.33
2019-02-14T20:53:25.473Z,6.29
2019-02-14T20:55:56.017Z,6.26
2019-02-14T20:58:26.498Z,6.24
2019-02-14T21:00:57.217Z,6.16
2019-02-14T21:03:30.464Z,6.04
2019-02-14T21:06:03.048Z,5.96
2019-02-14T21:08:33.498Z,5.88
2019-02-14T21:11:03.992Z,5.74
2019-02-14T21:13:34.793Z,5.69
2019-02-14T21:16:06.175Z,5.63
2019-02-14T21:18:37.350Z,5.60
2019-02-14T21:21:08.084Z,5.62
2019-02-14T21:23:39.777Z,5.65
2019-02-14T21:26:11.890Z,5.59
2019-02-14T21:28:43.414Z,5.45
2019-02-14T21:31:13.886Z,5.43
2019-02-14T21:33:44.682Z,5.44
2019-02-14T21:36:15.923Z,5.36
2019-02-14T21:38:46.344Z,5.37
2019-02-14T21:41:16.831Z,5.32
2019-02-14T21:43:47.286Z,5.33
2019-02-14T21:46:17.810Z,5.33
2019-02-14T21:48:48.613Z,5.39
2019-02-14T21:51:19.035Z,5.49
2019-02-14T21:53:49.912Z,5.54
2019-02-14T21:56:20.378Z,5.55
2019-02-14T21:58:51.302Z,5.56
2019-02-14T22:01:24.753Z,5.62
2019-02-14T22:03:55.743Z,5.69
2019-02-14T22:06:26.175Z,5.71
2019-02-14T22:08:56.666Z,5.74
2019-02-14T22:11:27.121Z,5.74
2019-02-14T22:13:57.893Z,5.74
2019-02-14T22:16:28.341Z,5.81
2019-02-14T22:18:59.121Z,5.77
2019-02-14T22:21:29.586Z,5.74
2019-02-14T22:24:00.174Z,5.78
2019-02-14T22:26:30.656Z,5.72
2019-02-14T22:29:01.299Z,5.74
2019-02-14T22:31:31.741Z,5.66
2019-02-14T22:34:02.284Z,5.71
2019-02-14T22:36:33.050Z,5.70
2019-02-14T22:39:05.119Z,5.68
2019-02-14T22:41:35.549Z,5.74
2019-02-14T22:44:06.754Z,5.69
2019-02-14T22:46:37.212Z,5.70
2019-02-14T22:49:07.801Z,5.69
2019-02-14T22:51:38.569Z,5.70
2019-02-14T22:54:09.009Z,5.69
2019-02-14T22:56:39.451Z,5.73
2019-02-14T22:59:10.181Z,5.65
2019-02-14T23:01:41.285Z,5.68
2019-02-14T23:04:12.241Z,5.60
2019-02-14T23:06:43.015Z,5.64
2019-02-14T23:09:14.044Z,5.68
2019-02-14T23:11:44.902Z,5.56
2019-02-14T23:14:15.331Z,5.56
2019-02-14T23:16:45.850Z,5.52
2019-02-14T23:19:16.573Z,5.47
2019-02-14T23:21:46.992Z,5.48
2019-02-14T23:24:17.459Z,5.47
2019-02-14T23:26:48.294Z,5.53
2019-02-14T23:29:19.139Z,5.49
2019-02-14T23:31:49.567Z,5.52
2019-02-14T23:34:20.002Z,5.54
2019-02-14T23:36:50.460Z,5.43
2019-02-14T23:39:20.893Z,5.33
2019-02-14T23:41:51.372Z,5.33
2019-02-14T23:44:21.808Z,5.33
2019-02-14T23:46:52.247Z,5.28
2019-02-14T23:49:22.709Z,5.20
2019-02-14T23:51:53.141Z,5.15
2019-02-14T23:54:23.632Z,5.15
2019-02-14T23:56:54.069Z,5.09
2019-02-14T23:59:24.507Z,5.02
